Terminal Aerodrome Forecast
Issued by NWS Omaha/Valley, NE

Home | Current Version | Previous Version | Text Only | Print | Product List | Glossary Off
Versions: 1 2 3 4 5 6 7 8 9 10 11 12 13 14 15

000
FTUS43 KOAX 132320
TAFOFK
TAF
KOFK 132320Z 1400/1424 14005KT P6SM SCT040 OVC150
     FM140600 VRB04KT P6SM BKN150
     FM141500 29005KT P6SM BKN200=

USA.gov is the U.S. government's official web portal to all federal, state and local government web resources and services.